x

Buoy B01 - Western Maine Shelf (44030) Wave Buoy

4:04pm - Tue 16th Oct 2018 All times are EDT. -4 hours from GMT.

  • Sig Wave height 1.6ft
  • Peak Period 3s
  • Wind
    20mph, 25mph gusts
  • Sea Temp 56°f
  • Air Temp 55°f
  • Sea Pressure 1013mb
  • Buoy B01 - Western Maine Shelf
  • Buoy B01 - Western Maine Shelf

More Historic Weather Station data

Upgrade to MSW Pro to gain access to the past 30 days of data for over 8000 Wavebouys and Weather Stations around the globe.

Join

Comparision Forecast

View Surf forecast
   
Tue 10/16 4:04pm 1.6ft 3s 20 25 mph 1013mb 56f 55f
3:04pm 2.5ft 3s 18 22 mph 1013.1mb 56f 55f
2:04pm 2ft 3s 18 22 mph 1013.3mb 56f 54f
1:04pm 2ft 3s 16 22 mph 1014mb 56f 52f
11:04am 2.5ft 4s 22 29 mph 1014.3mb 56f 50f
10:04am 2.5ft 3s 25 29 mph 1014.5mb 56f 48f
9:04am 3ft 3s 22 29 mph 1014.1mb 56f 47f
8:04am 3ft 3s 25 29 mph 1013.3mb 56f 47f
7:04am 3ft 4s 25 31 mph 1011.8mb 56f 48f
6:04am 4.5ft 4s 29 36 mph 1010.5mb 56f 49f
5:04am 5ft 5s 31 45 mph 1009.2mb 56f 51f
4:04am 4.5ft 4s 31 43 mph 1007.9mb 57f 53f
2:04am 5ft 6s 25 34 mph 1005mb 57f 57f
1:04am 6ft 6s 25 31 mph 1004.5mb 57f 57f
12:04am 5ft 6s 16 20 mph 1002.7mb 57f 60f
Mon 10/15 11:04pm 5ft 6s 18 20 mph 1003.4mb 57f 60f
10:04pm 5ft 6s 13 16 mph 1004.6mb 57f 59f
7:04pm 5ft 5s 18 22 mph 1007.7mb 57f 59f
6:04pm 5ft 5s 20 25 mph 1008.8mb 57f 58f
4:04pm 4ft 5s 22 27 mph 1011.5mb 57f 58f
3:04pm 3ft 4s 20 25 mph 1012.9mb 57f 57f
2:04pm 2.5ft 4s 20 22 mph 1014.9mb 57f 56f
1:04pm 2.5ft 4s 16 18 mph 1016.4mb 56f 55f
12:04pm 2ft 4s 16 18 mph 1018.8mb 56f 53f
11:04am 1.6ft 3s 13 16 mph 1019.6mb 56f 55f
10:04am 1ft 2s 13 18 mph 1020.8mb 56f 54f
9:04am 0.7ft  -  7 7 mph 1021.2mb 56f 51f
8:04am 1ft 11s 11 13 mph 1021.5mb 56f 53f
7:04am 0.7ft  -  2 4 mph 1021.6mb 56f 51f
6:04am 0.7ft  -  4 4 mph 1021.5mb 57f 51f
5:04am 0.7ft  -  9 11 mph 1021.7mb 57f 51f
3:04am 1ft 6s 7 7 mph 1022.1mb 57f 51f
1:04am 1.3ft 4s 9 9 mph 1022.7mb 57f 52f
12:04am 1.3ft 4s 11 13 mph 1022.4mb 57f 52f
Sun 10/14 9:04pm 1.6ft 3s 16 18 mph 1021.8mb 57f 55f
8:04pm 1.6ft 3s 13 18 mph 1021.6mb 57f 56f
7:04pm 1.3ft 3s 13 16 mph 1021.3mb 57f 55f
6:04pm 1.3ft 3s 13 16 mph 1021mb 57f 56f
5:04pm 1.3ft 3s 16 20 mph 1020.5mb 57f 56f
4:04pm 1.3ft 3s 13 18 mph 1020.4mb 57f 55f
3:04pm 1.6ft 8s 13 16 mph 1020.1mb 57f 54f
2:04pm 1ft 3s 11 16 mph 1020.4mb 57f 53f
1:04pm 1.6ft 8s 7 13 mph 1020.8mb 57f 51f
12:04pm 1ft 2s 11 13 mph 1021mb 57f 50f
11:04am 1ft 3s 11 16 mph 1021.2mb 56f 49f
10:04am 1.3ft 3s 16 18 mph 1021.3mb 56f 48f
8:04am 1.6ft 3s 18 20 mph 1020.7mb 56f 47f
7:04am 1.3ft 3s 16 20 mph 1019.7mb 56f 46f
4:04am 1.6ft 3s 16 20 mph 1017.8mb 57f 47f
3:04am 1.3ft 3s 16 20 mph 1017mb 57f 49f
2:04am 1.3ft 3s 16 20 mph 1016.5mb 57f 48f
1:04am 1.3ft 3s 16 18 mph 1015.9mb 57f 49f
12:04am  -   -  16 18 mph 1015.1mb 57f 49f
Sat 10/13 11:04pm  -   -  18 22 mph 1015.2mb 57f 50f
10:04pm  -   -  18 20 mph 1014.5mb 57f 50f
9:04pm 3.5ft 11s 13 18 mph 1013.2mb 58f 51f
8:04pm  -   -  13 16 mph 1012.4mb 58f 51f
7:04pm 3.5ft 11s 18 20 mph 1011.3mb 58f 51f
5:04pm 3ft 11s 16 20 mph 1009.3mb 58f 51f
4:04pm 3.5ft 11s 16 20 mph 1009.1mb 58f 48f
3:04pm 1.3ft 3s 11 16 mph 1008.6mb 58f 48f
2:04pm  -   -  16 22 mph 1008.4mb 58f 47f
1:04pm 3.5ft 11s 16 20 mph 1008.6mb 58f 47f
12:04pm 1.6ft 3s 18 22 mph 1008.8mb 58f 47f
10:04am 3ft 11s 18 20 mph 1008.7mb 58f 49f
9:04am 3ft 11s 13 18 mph 1008.1mb 58f 49f
8:04am 3.5ft 11s 7 13 mph 1007.5mb 58f 50f
7:04am 3.5ft 11s 11 13 mph 1007.3mb 58f 51f
6:04am 3.5ft 11s 9 11 mph 1006.2mb 58f 50f
5:04am 4.5ft 11s 9 13 mph 1006mb 58f 51f
4:04am  -   -  13 16 mph 1005.7mb 58f 51f
2:04am 4ft 11s 13 18 mph 1005.3mb 58f 52f
1:04am 1ft 3s 16 20 mph 1005.6mb 58f 52f